Time;durP1;ratioP1;P1;durP2;ratioP2;P2;SDS_P1;SDS_P2;PMS_P1;PMS_P2;Temp;Humidity;BMP_temperature;BMP_pressure;BME280_temperature;BME280_humidity;BME280_pressure;Samples;Min_cycle;Max_cycle;Signal;HPM_P1;HPM_P2
2023/12/31 16:06:07;;;;;;;58.45;27.98;;;6.90;99.90;;;;;;5124099;27;20330;-62
2023/12/31 16:08:33;;;;;;;61.47;31.75;;;6.70;99.90;;;;;;5114523;28;20034;-60
2023/12/31 16:11:00;;;;;;;56.65;28.88;;;6.70;99.90;;;;;;5114561;28;20158;-65
2023/12/31 16:13:25;;;;;;;59.97;32.60;;;6.60;99.90;;;;;;5113853;27;20036;-57
2023/12/31 16:15:51;;;;;;;60.78;34.65;;;6.60;99.90;;;;;;5116867;28;20408;-68
2023/12/31 16:18:18;;;;;;;60.08;35.92;;;6.50;99.90;;;;;;5115789;27;20066;-61
2023/12/31 16:20:44;;;;;;;59.80;35.40;;;6.40;99.90;;;;;;5114858;27;20073;-66
2023/12/31 16:23:10;;;;;;;65.90;34.00;;;6.40;99.90;;;;;;5109993;28;20479;-55
2023/12/31 16:25:35;;;;;;;58.72;32.92;;;6.40;99.90;;;;;;5115282;28;20114;-59
2023/12/31 16:28:01;;;;;;;58.92;33.72;;;6.30;99.90;;;;;;5115339;28;20035;-63
2023/12/31 16:30:27;;;;;;;62.90;31.50;;;6.30;99.90;;;;;;5104752;27;20031;-64
2023/12/31 16:32:52;;;;;;;64.13;33.88;;;6.30;99.90;;;;;;5086680;28;20024;-65
2023/12/31 16:35:18;;;;;;;58.63;33.08;;;6.30;99.90;;;;;;5087769;28;20551;-55
2023/12/31 16:37:43;;;;;;;58.08;31.92;;;6.20;99.90;;;;;;5083976;28;20031;-59
2023/12/31 16:40:10;;;;;;;61.05;32.75;;;6.10;99.90;;;;;;5082045;28;20024;-59
2023/12/31 16:42:38;;;;;;;61.33;35.78;;;6.10;99.90;;;;;;5081941;28;20030;-60
2023/12/31 16:45:07;;;;;;;61.75;34.55;;;6.00;99.90;;;;;;5082951;28;20036;-62
2023/12/31 16:47:36;;;;;;;59.92;35.83;;;6.00;99.90;;;;;;5083322;28;20128;-62
2023/12/31 16:50:09;;;;;;;61.10;34.65;;;5.90;99.90;;;;;;5103798;28;20027;-58
2023/12/31 16:52:36;;;;;;;64.93;36.08;;;5.90;99.90;;;;;;5102189;28;20028;-62
2023/12/31 16:55:02;;;;;;;69.75;40.33;;;5.90;99.90;;;;;;5083503;28;20129;-59
2023/12/31 16:57:28;;;;;;;64.18;38.42;;;5.90;99.90;;;;;;5083438;28;20111;-61
2023/12/31 16:59:53;;;;;;;67.78;38.67;;;5.80;99.90;;;;;;5084481;28;20090;-58
2023/12/31 17:02:19;;;;;;;70.90;40.28;;;5.80;99.90;;;;;;5083523;28;20075;-59
2023/12/31 17:04:44;;;;;;;72.03;41.58;;;5.80;99.90;;;;;;5082834;28;20052;-60
2023/12/31 17:07:10;;;;;;;75.13;40.33;;;5.80;99.90;;;;;;5082741;28;20032;-62
2023/12/31 17:09:36;;;;;;;79.32;42.38;;;5.80;99.90;;;;;;5082585;28;20056;-66
2023/12/31 17:12:01;;;;;;;69.40;42.10;;;5.70;99.90;;;;;;5082668;28;20031;-65
2023/12/31 17:14:27;;;;;;;78.30;43.10;;;5.70;99.90;;;;;;5082191;28;20043;-67
2023/12/31 17:16:53;;;;;;;81.95;44.85;;;5.70;99.90;;;;;;5072373;28;20081;-68
2023/12/31 17:19:20;;;;;;;87.95;44.45;;;5.70;99.90;;;;;;5068887;28;20040;-55
2023/12/31 17:21:45;;;;;;;83.25;44.15;;;5.70;99.90;;;;;;5069219;28;20479;-67
2023/12/31 17:24:11;;;;;;;84.38;44.75;;;5.60;99.90;;;;;;5068995;28;20043;-66
2023/12/31 17:26:37;;;;;;;95.80;50.67;;;5.60;99.90;;;;;;5068735;28;20059;-65
2023/12/31 17:29:02;;;;;;;108.05;53.10;;;5.50;99.90;;;;;;5068512;28;20028;-62
2023/12/31 17:31:28;;;;;;;107.05;55.78;;;5.50;99.90;;;;;;5068727;28;20310;-59
2023/12/31 17:33:54;;;;;;;95.40;49.30;;;5.50;99.90;;;;;;5068739;28;20032;-66
2023/12/31 17:36:20;;;;;;;82.22;46.10;;;5.50;99.90;;;;;;5068725;28;20039;-64
2023/12/31 17:38:46;;;;;;;92.63;49.17;;;5.50;99.90;;;;;;5075396;28;20020;-63
2023/12/31 17:41:12;;;;;;;94.30;48.95;;;5.50;99.90;;;;;;5096888;28;20770;-62
2023/12/31 17:43:38;;;;;;;89.30;49.97;;;5.50;99.90;;;;;;5098166;28;20109;-64
2023/12/31 17:46:04;;;;;;;117.15;65.13;;;5.50;99.90;;;;;;5096936;28;20025;-57
2023/12/31 17:48:29;;;;;;;107.10;56.22;;;5.50;99.90;;;;;;5096843;28;20447;-60
2023/12/31 17:50:56;;;;;;;101.25;52.58;;;5.50;99.90;;;;;;5097935;28;20115;-60
2023/12/31 17:53:22;;;;;;;96.95;54.33;;;5.50;99.90;;;;;;5096761;28;20108;-58
2023/12/31 17:55:48;;;;;;;95.05;52.15;;;5.50;99.90;;;;;;5100821;28;20020;-62
2023/12/31 17:58:15;;;;;;;101.10;54.90;;;5.40;99.90;;;;;;5099829;28;20028;-58
2023/12/31 18:00:40;;;;;;;103.40;55.88;;;5.40;99.90;;;;;;5095563;28;20068;-59
2023/12/31 18:03:06;;;;;;;97.72;52.47;;;5.40;99.90;;;;;;5099187;28;20031;-64
2023/12/31 18:05:32;;;;;;;96.45;52.75;;;5.30;99.90;;;;;;5097486;28;20074;-64
2023/12/31 18:07:57;;;;;;;99.63;53.35;;;5.30;99.90;;;;;;5097403;28;20509;-60
2023/12/31 18:10:23;;;;;;;101.35;53.05;;;5.30;99.90;;;;;;5098942;28;20024;-61
2023/12/31 18:12:50;;;;;;;100.85;52.47;;;5.20;99.90;;;;;;5096664;28;20016;-59
2023/12/31 18:15:16;;;;;;;105.65;54.33;;;5.20;99.90;;;;;;5097336;28;20083;-57
2023/12/31 18:17:42;;;;;;;106.07;54.47;;;5.20;99.90;;;;;;5098415;28;20024;-62
2023/12/31 18:20:08;;;;;;;95.10;52.60;;;5.30;99.90;;;;;;5096568;28;20024;-58
2023/12/31 18:22:34;;;;;;;97.78;51.60;;;5.20;99.90;;;;;;5097372;28;20126;-62
2023/12/31 18:24:59;;;;;;;107.18;53.00;;;5.20;99.90;;;;;;5097992;28;20127;-58
2023/12/31 18:27:25;;;;;;;100.10;52.45;;;5.20;99.90;;;;;;5094894;28;20422;-57
2023/12/31 18:29:51;;;;;;;97.53;51.05;;;5.20;99.90;;;;;;5097353;28;20023;-58
2023/12/31 18:32:17;;;;;;;92.72;51.17;;;5.30;99.90;;;;;;5088054;28;20135;-60
2023/12/31 18:34:42;;;;;;;92.82;50.05;;;5.30;99.90;;;;;;5095782;28;20434;-60
2023/12/31 18:37:08;;;;;;;99.18;51.78;;;5.30;99.90;;;;;;5094376;28;20038;-60
2023/12/31 18:39:34;;;;;;;97.55;52.58;;;5.30;99.90;;;;;;5093800;28;20382;-56
2023/12/31 18:42:00;;;;;;;99.95;53.08;;;5.20;99.90;;;;;;5094614;28;20633;-55
2023/12/31 18:44:25;;;;;;;103.43;55.60;;;5.20;99.90;;;;;;5097040;28;20096;-60
2023/12/31 18:46:51;;;;;;;117.80;56.95;;;5.20;99.90;;;;;;5091459;28;20027;-62
2023/12/31 18:49:17;;;;;;;105.07;54.80;;;5.20;99.90;;;;;;5095081;28;20386;-61
2023/12/31 18:51:43;;;;;;;108.35;56.58;;;5.20;99.90;;;;;;5091616;28;20027;-56
2023/12/31 18:54:10;;;;;;;99.88;53.33;;;5.10;99.90;;;;;;5095407;28;20020;-68
2023/12/31 18:56:35;;;;;;;;;;;5.20;99.90;;;;;;5095460;28;20027;-69
2023/12/31 18:59:06;;;;;;;98.55;51.75;;;5.20;99.90;;;;;;5093643;28;19912;-59
2023/12/31 19:01:32;;;;;;;93.93;52.80;;;5.10;99.90;;;;;;5108006;27;20053;-60
2023/12/31 19:03:59;;;;;;;95.18;49.65;;;5.20;99.90;;;;;;5093618;28;20028;-61
2023/12/31 19:06:26;;;;;;;92.10;51.40;;;5.20;99.90;;;;;;5095359;28;20028;-56
2023/12/31 19:08:52;;;;;;;93.47;51.45;;;5.20;99.90;;;;;;5093860;28;20028;-59
2023/12/31 19:11:18;;;;;;;91.72;51.88;;;5.20;99.90;;;;;;5093529;28;20039;-61
2023/12/31 19:13:43;;;;;;;94.82;53.40;;;5.20;99.90;;;;;;5095099;28;20015;-56
2023/12/31 19:16:09;;;;;;;88.60;50.30;;;5.10;99.90;;;;;;5089871;28;20059;-60
2023/12/31 19:18:35;;;;;;;91.63;52.47;;;5.10;99.90;;;;;;5093923;28;20020;-58
2023/12/31 19:21:01;;;;;;;89.78;51.30;;;5.10;99.90;;;;;;5094994;28;20035;-60
2023/12/31 19:23:26;;;;;;;96.35;50.95;;;5.20;99.90;;;;;;5092929;28;20024;-59
2023/12/31 19:25:52;;;;;;;87.88;49.35;;;5.10;99.90;;;;;;5092607;28;20062;-58
2023/12/31 19:28:18;;;;;;;87.97;49.45;;;5.10;99.90;;;;;;5094906;28;20020;-60
2023/12/31 19:30:44;;;;;;;100.30;54.17;;;4.90;99.90;;;;;;5092765;28;20023;-58
2023/12/31 19:33:10;;;;;;;110.30;58.42;;;4.90;99.90;;;;;;5094747;28;20016;-60
2023/12/31 19:35:36;;;;;;;95.93;52.88;;;4.90;99.90;;;;;;5094002;28;20024;-55
2023/12/31 19:38:02;;;;;;;103.45;55.50;;;4.90;99.90;;;;;;5092859;28;20031;-56
2023/12/31 19:40:28;;;;;;;94.93;53.80;;;4.70;99.90;;;;;;5089928;28;20467;-59
2023/12/31 19:42:53;;;;;;;97.95;54.58;;;4.60;1.00;;;;;;5092271;28;20027;-59
2023/12/31 19:45:19;;;;;;;102.18;54.97;;;4.60;99.90;;;;;;5093905;28;20036;-58
2023/12/31 19:47:45;;;;;;;90.28;50.13;;;4.60;99.90;;;;;;5092268;28;20080;-60
2023/12/31 19:50:10;;;;;;;104.25;53.05;;;4.50;99.90;;;;;;5094124;28;20485;-63
2023/12/31 19:52:36;;;;;;;100.18;56.13;;;4.60;88.30;;;;;;5088598;28;20397;-55
2023/12/31 19:55:06;;;;;;;105.00;58.47;;;4.50;1.00;;;;;;5094567;28;20043;-60
2023/12/31 19:57:33;;;;;;;104.90;56.47;;;4.40;99.90;;;;;;5090017;28;20132;-57
2023/12/31 19:59:58;;;;;;;103.47;55.45;;;4.50;1.00;;;;;;5091431;28;20026;-59
2023/12/31 20:02:28;;;;;;;110.88;56.72;;;4.30;99.90;;;;;;5094710;28;20028;-67
2023/12/31 20:04:54;;;;;;;96.65;53.03;;;4.30;99.90;;;;;;5084332;28;20060;-61
2023/12/31 20:07:19;;;;;;;105.25;57.67;;;4.50;1.00;;;;;;5085727;28;20096;-62
2023/12/31 20:09:45;;;;;;;120.20;58.95;;;4.40;99.90;;;;;;5092413;28;20020;-60
2023/12/31 20:12:11;;;;;;;96.70;55.20;;;4.30;99.90;;;;;;5093354;28;20043;-60
2023/12/31 20:14:37;;;;;;;95.85;55.40;;;4.30;99.90;;;;;;5093958;28;20379;-60
2023/12/31 20:17:05;;;;;;;99.23;53.47;;;4.40;99.90;;;;;;5092052;28;20059;-59
2023/12/31 20:19:31;;;;;;;91.85;51.17;;;4.30;99.90;;;;;;5093338;28;20424;-60
2023/12/31 20:21:57;;;;;;;94.60;52.65;;;4.30;99.90;;;;;;5088716;28;20542;-66
2023/12/31 20:24:23;;;;;;;98.93;54.60;;;4.20;99.90;;;;;;5083807;28;20047;-61
2023/12/31 20:26:48;;;;;;;103.50;57.47;;;4.30;99.90;;;;;;5082615;28;20113;-65
2023/12/31 20:29:14;;;;;;;96.45;53.83;;;4.20;99.90;;;;;;5081950;28;20031;-65
2023/12/31 20:31:40;;;;;;;99.10;51.30;;;4.20;99.90;;;;;;5081717;28;20566;-59
2023/12/31 20:34:05;;;;;;;97.70;55.50;;;4.30;1.00;;;;;;5081917;28;20039;-57
2023/12/31 20:36:31;;;;;;;96.97;51.90;;;4.30;99.90;;;;;;5080645;28;20123;-58
2023/12/31 20:38:57;;;;;;;101.20;56.50;;;4.30;1.00;;;;;;5082593;28;20032;-60
2023/12/31 20:41:22;;;;;;;108.22;57.55;;;4.20;1.00;;;;;;5080199;28;20576;-58
2023/12/31 20:43:50;;;;;;;94.50;54.05;;;4.10;99.90;;;;;;5080574;28;20024;-66
2023/12/31 20:46:16;;;;;;;105.07;56.78;;;4.10;99.90;;;;;;5083768;28;20131;-58
2023/12/31 20:48:46;;;;;;;101.00;55.67;;;4.10;99.90;;;;;;5084428;28;20550;-64
2023/12/31 20:51:12;;;;;;;101.55;54.63;;;4.10;99.90;;;;;;5084290;28;20101;-61
2023/12/31 20:53:40;;;;;;;101.50;54.92;;;4.20;99.90;;;;;;5084914;28;20030;-57
2023/12/31 20:56:13;;;;;;;99.13;54.35;;;4.20;99.90;;;;;;5087508;28;20028;-59
2023/12/31 20:58:39;;;;;;;109.22;59.60;;;4.20;99.90;;;;;;5087686;28;20032;-60
2023/12/31 21:01:06;;;;;;;116.10;58.90;;;4.10;99.90;;;;;;5088266;28;20025;-58
2023/12/31 21:03:34;;;;;;;115.85;60.90;;;4.10;99.90;;;;;;5066045;28;20028;-57
2023/12/31 21:09:42;;;;;;;140.65;72.65;;;3.90;99.90;;;;;;5074517;22;20071;-56
2023/12/31 21:12:08;;;;;;;146.63;74.25;;;3.80;99.90;;;;;;5094432;28;20028;-60
2023/12/31 21:14:33;;;;;;;151.55;75.28;;;3.70;99.90;;;;;;5093568;28;20028;-56
2023/12/31 21:16:59;;;;;;;154.35;77.28;;;3.70;1.00;;;;;;5092484;28;20035;-55
2023/12/31 21:19:25;;;;;;;156.10;79.25;;;3.70;99.90;;;;;;5090764;28;20386;-57
2023/12/31 21:21:50;;;;;;;169.13;79.22;;;3.60;1.00;;;;;;5089924;28;20471;-55
2023/12/31 21:24:16;;;;;;;169.88;85.72;;;3.50;1.00;;;;;;5089016;28;20480;-57
2023/12/31 21:26:43;;;;;;;181.73;91.72;;;3.40;1.00;;;;;;5085344;28;20782;-56
2023/12/31 21:29:11;;;;;;;185.70;99.00;;;3.50;99.90;;;;;;5085177;28;20527;-57
2023/12/31 21:31:37;;;;;;;224.35;113.38;;;3.50;99.90;;;;;;5084732;28;20043;-56
2023/12/31 21:34:03;;;;;;;264.52;124.63;;;3.50;99.90;;;;;;5086298;28;20035;-56
2023/12/31 21:36:29;;;;;;;255.55;121.97;;;3.60;99.90;;;;;;5085051;28;20030;-56
2023/12/31 21:38:54;;;;;;;251.13;121.72;;;3.60;99.90;;;;;;5084860;28;20712;-55
2023/12/31 21:41:22;;;;;;;268.02;125.53;;;3.70;99.90;;;;;;5086071;28;20826;-56
2023/12/31 21:43:48;;;;;;;267.13;126.53;;;3.70;99.90;;;;;;5087129;28;20943;-57
2023/12/31 21:46:14;;;;;;;278.63;128.38;;;3.70;99.90;;;;;;5088070;28;20487;-56
2023/12/31 21:48:42;;;;;;;248.27;117.65;;;3.70;99.90;;;;;;5088179;28;20421;-56
2023/12/31 21:51:08;;;;;;;237.98;112.32;;;3.60;99.90;;;;;;5084913;28;20063;-54
2023/12/31 21:53:34;;;;;;;220.75;103.70;;;3.60;99.90;;;;;;5084993;28;20744;-56
2023/12/31 21:56:00;;;;;;;207.63;101.82;;;3.60;99.90;;;;;;5088082;28;20032;-54
2023/12/31 21:58:25;;;;;;;207.48;101.50;;;3.70;99.90;;;;;;5091932;28;20035;-54
2023/12/31 22:00:52;;;;;;;180.77;92.05;;;3.80;99.90;;;;;;5087494;28;20475;-56
2023/12/31 22:03:19;;;;;;;188.57;97.23;;;3.70;99.90;;;;;;5085186;28;20501;-55
2023/12/31 22:05:45;;;;;;;197.38;99.97;;;3.70;99.90;;;;;;5085146;28;20694;-56
2023/12/31 22:08:10;;;;;;;206.10;104.57;;;3.70;99.90;;;;;;5081040;28;20083;-56
2023/12/31 22:10:36;;;;;;;214.98;107.85;;;3.70;99.90;;;;;;5084326;28;20056;-55
2023/12/31 22:13:03;;;;;;;196.75;99.40;;;3.60;92.80;;;;;;5085199;28;20024;-56
2023/12/31 22:15:32;;;;;;;191.10;99.32;;;3.60;11.90;;;;;;5080425;28;20108;-57
2023/12/31 22:17:58;;;;;;;196.85;100.57;;;3.60;29.20;;;;;;5080548;28;20055;-56
2023/12/31 22:20:24;;;;;;;191.20;96.90;;;3.70;99.90;;;;;;5084295;28;20020;-55
2023/12/31 22:22:50;;;;;;;187.95;95.53;;;3.70;99.90;;;;;;5083726;28;20449;-55
2023/12/31 22:25:15;;;;;;;188.75;95.93;;;3.70;91.10;;;;;;5084317;28;20075;-56
2023/12/31 22:27:42;;;;;;;172.00;92.72;;;3.60;99.90;;;;;;5084284;28;20028;-54
2023/12/31 22:30:09;;;;;;;181.98;95.30;;;3.60;99.90;;;;;;5084830;28;20403;-57
2023/12/31 22:32:35;;;;;;;176.85;91.25;;;3.60;99.90;;;;;;5084332;28;20047;-56
2023/12/31 22:35:01;;;;;;;172.85;93.13;;;3.60;99.90;;;;;;5083177;28;20503;-53
2023/12/31 22:37:27;;;;;;;187.20;97.82;;;3.70;99.90;;;;;;5083672;28;20040;-54
2023/12/31 22:39:52;;;;;;;181.68;95.43;;;3.60;99.90;;;;;;5083306;28;20070;-57
2023/12/31 22:42:18;;;;;;;171.95;91.50;;;3.60;99.90;;;;;;5082899;28;20036;-54
2023/12/31 22:44:43;;;;;;;174.30;94.10;;;3.70;99.90;;;;;;5084350;28;20079;-56
2023/12/31 22:47:09;;;;;;;180.30;92.45;;;3.60;99.90;;;;;;5084980;28;20024;-56
2023/12/31 22:49:35;;;;;;;174.25;90.28;;;3.60;99.90;;;;;;5083310;28;20024;-54
